TimeEDT,TemperatureF,Dew PointF,Humidity,Sea Level PressureIn,VisibilityMPH,Wind Direction,Wind SpeedMPH,Gust SpeedMPH,PrecipitationIn,Events,Conditions,WindDirDegrees,DateUTC
12:38 AM,55.4,51.8,88,30.15,10.0,SSE,2.3,-,N/A,,Scattered Clouds,150,2013-04-23 04:38:00
12:58 AM,53.6,51.3,92,30.17,10.0,SSE,2.3,-,N/A,,Partly Cloudy,150,2013-04-23 04:58:00
1:53 AM,53.6,51.8,94,30.16,10.0,East,1.2,-,N/A,,Overcast,100,2013-04-23 05:53:00
1:58 AM,54.0,51.4,91,30.17,10.0,ESE,2.3,-,N/A,,Overcast,120,2013-04-23 05:58:00
2:58 AM,57.0,49.5,76,30.16,10.0,East,4.6,-,N/A,,Overcast,90,2013-04-23 06:58:00
3:58 AM,55.9,44.8,66,30.15,10.0,ESE,5.8,-,N/A,,Overcast,110,2013-04-23 07:58:00
4:43 AM,59.0,41.0,51,30.14,10.0,East,5.8,-,N/A,,Overcast,90,2013-04-23 08:43:00
4:58 AM,58.5,41.4,53,30.16,10.0,Variable,4.6,-,N/A,,Overcast,0,2013-04-23 08:58:00
5:03 AM,57.2,41.0,55,30.14,10.0,Variable,2.3,-,N/A,,Overcast,0,2013-04-23 09:03:00
5:58 AM,56.8,42.6,59,30.17,10.0,NNE,4.6,-,N/A,,Mostly Cloudy,30,2013-04-23 09:58:00
6:58 AM,53.2,44.2,72,30.18,10.0,North,4.6,-,N/A,,Mostly Cloudy,360,2013-04-23 10:58:00
7:58 AM,54.9,43.2,65,30.19,10.0,NE,5.8,-,N/A,,Overcast,50,2013-04-23 11:58:00
8:58 AM,57.4,42.3,57,30.20,10.0,East,5.8,-,N/A,,Clear,80,2013-04-23 12:58:00
9:58 AM,61.7,45.1,55,30.21,10.0,East,9.2,-,N/A,,Clear,100,2013-04-23 13:58:00
10:58 AM,65.7,45.5,48,30.20,10.0,East,6.9,-,N/A,,Clear,100,2013-04-23 14:58:00
11:58 AM,68.5,46.2,45,30.19,10.0,ENE,11.5,-,N/A,,Clear,60,2013-04-23 15:58:00
12:58 PM,71.1,48.4,44,30.17,10.0,ESE,6.9,-,N/A,,Clear,120,2013-04-23 16:58:00
1:58 PM,73.2,49.8,44,30.16,10.0,Variable,1.2,-,N/A,,Clear,0,2013-04-23 17:58:00
2:58 PM,75.2,51.4,43,30.13,10.0,SSE,4.6,-,N/A,,Clear,160,2013-04-23 18:58:00
3:58 PM,77.0,52.5,42,30.11,10.0,Variable,6.9,-,N/A,,Clear,0,2013-04-23 19:58:00
4:58 PM,78.1,52.2,40,30.08,10.0,Variable,4.6,-,N/A,,Clear,0,2013-04-23 20:58:00
5:58 PM,78.4,52.7,41,30.07,10.0,SSE,3.5,-,N/A,,Clear,150,2013-04-23 21:58:00
6:58 PM,76.6,53.8,45,30.07,10.0,SE,6.9,-,N/A,,Clear,140,2013-04-23 22:58:00
7:58 PM,70.7,55.2,58,30.07,10.0,SE,5.8,-,N/A,,Clear,140,2013-04-23 23:58:00
8:58 PM,64.4,56.8,76,30.09,10.0,SE,5.8,-,N/A,,Mostly Cloudy,140,2013-04-24 00:58:00
9:58 PM,60.1,56.1,87,30.10,10.0,South,2.3,-,N/A,,Clear,190,2013-04-24 01:58:00
10:58 PM,58.5,55.6,90,30.11,10.0,Calm,Calm,-,N/A,,Clear,0,2013-04-24 02:58:00
11:58 PM,56.8,54.9,93,30.11,10.0,Calm,Calm,-,N/A,,Clear,0,2013-04-24 03:58:00